createdAt,value
2024-04-24T00:00:02.089Z,667.00
2024-04-24T00:00:16.102Z,668.00
2024-04-24T00:00:30.102Z,668.00
2024-04-24T00:00:44.114Z,668.00
2024-04-24T00:00:58.119Z,669.00
2024-04-24T00:01:12.127Z,669.00
2024-04-24T00:01:26.174Z,669.00
2024-04-24T00:01:40.229Z,669.00
2024-04-24T00:01:54.283Z,668.00
2024-04-24T00:02:08.372Z,669.00
2024-04-24T00:02:22.483Z,669.00
2024-04-24T00:02:36.680Z,670.00
2024-04-24T00:02:50.785Z,670.00
2024-04-24T00:03:07.987Z,670.00
2024-04-24T00:03:18.665Z,669.00
2024-04-24T00:03:32.831Z,669.00
2024-04-24T00:03:47.029Z,669.00
2024-04-24T00:04:01.096Z,669.00
2024-04-24T00:04:15.336Z,669.00
2024-04-24T00:04:29.471Z,668.00
2024-04-24T00:04:43.572Z,669.00
2024-04-24T00:04:57.609Z,667.00
2024-04-24T00:05:11.675Z,667.00
2024-04-24T00:05:25.759Z,667.00
2024-04-24T00:05:39.789Z,667.00
2024-04-24T00:05:53.787Z,666.00
2024-04-24T00:06:07.806Z,667.00
2024-04-24T00:06:21.805Z,665.00
2024-04-24T00:06:35.871Z,665.00
2024-04-24T00:06:49.878Z,664.00
2024-04-24T00:07:03.867Z,665.00
2024-04-24T00:07:17.885Z,665.00
2024-04-24T00:07:31.881Z,665.00
2024-04-24T00:07:45.935Z,665.00
2024-04-24T00:08:00.024Z,664.00
2024-04-24T00:08:14.118Z,663.00
2024-04-24T00:08:28.148Z,664.00
2024-04-24T00:08:42.155Z,664.00
2024-04-24T00:08:56.164Z,664.00
2024-04-24T00:09:10.168Z,663.00
2024-04-24T00:09:24.177Z,663.00
2024-04-24T00:09:38.196Z,664.00
2024-04-24T00:09:52.206Z,662.00
2024-04-24T00:10:06.232Z,662.00
2024-04-24T00:10:20.252Z,661.00
2024-04-24T00:10:34.271Z,661.00
2024-04-24T00:10:48.392Z,661.00
2024-04-24T00:11:02.496Z,660.00
2024-04-24T00:11:16.629Z,660.00
2024-04-24T00:11:30.817Z,660.00
2024-04-24T00:11:44.999Z,661.00
2024-04-24T00:11:59.186Z,660.00
2024-04-24T00:12:13.227Z,660.00
2024-04-24T00:12:27.226Z,660.00
2024-04-24T00:12:41.238Z,662.00
2024-04-24T00:12:55.228Z,662.00
2024-04-24T00:13:09.235Z,663.00
2024-04-24T00:13:23.228Z,664.00
2024-04-24T00:13:37.235Z,666.00
2024-04-24T00:13:51.386Z,666.00
2024-04-24T00:14:05.475Z,666.00
2024-04-24T00:14:19.713Z,667.00
2024-04-24T00:14:33.795Z,667.00
2024-04-24T00:14:47.801Z,666.00
2024-04-24T00:15:01.803Z,667.00
2024-04-24T00:15:15.825Z,668.00
2024-04-24T00:15:29.819Z,668.00
2024-04-24T00:15:43.887Z,667.00
2024-04-24T00:15:57.929Z,667.00
2024-04-24T00:16:11.992Z,668.00
2024-04-24T00:16:25.991Z,668.00
2024-04-24T00:16:40.002Z,668.00
2024-04-24T00:16:54.031Z,668.00
2024-04-24T00:17:08.093Z,668.00
2024-04-24T00:17:22.152Z,668.00
2024-04-24T00:17:36.284Z,668.00
2024-04-24T00:17:50.427Z,667.00
2024-04-24T00:18:05.130Z,668.00
2024-04-24T00:18:19.379Z,668.00
2024-04-24T00:18:33.510Z,667.00
2024-04-24T00:18:47.841Z,668.00
2024-04-24T00:19:01.964Z,667.00
2024-04-24T00:19:15.966Z,666.00
2024-04-24T00:19:29.960Z,666.00
2024-04-24T00:19:43.992Z,666.00
2024-04-24T00:19:58.110Z,667.00
2024-04-24T00:20:12.173Z,667.00
2024-04-24T00:20:26.248Z,666.00
2024-04-24T00:20:40.303Z,666.00
2024-04-24T00:20:54.301Z,666.00
2024-04-24T00:21:08.299Z,666.00
2024-04-24T00:21:22.313Z,666.00
2024-04-24T00:21:36.301Z,666.00
2024-04-24T00:21:50.313Z,667.00
2024-04-24T00:22:04.305Z,668.00
2024-04-24T00:22:18.316Z,668.00
2024-04-24T00:22:32.341Z,669.00
2024-04-24T00:22:46.373Z,670.00
2024-04-24T00:23:00.446Z,669.00
2024-04-24T00:23:14.545Z,670.00
2024-04-24T00:23:28.595Z,670.00
2024-04-24T00:23:42.630Z,669.00
2024-04-24T00:23:56.620Z,669.00
2024-04-24T00:24:10.627Z,670.00
2024-04-24T00:24:24.633Z,669.00
2024-04-24T00:24:38.637Z,669.00
2024-04-24T00:24:52.638Z,668.00
2024-04-24T00:25:06.648Z,668.00
2024-04-24T00:25:20.644Z,669.00
2024-04-24T00:25:34.651Z,669.00
2024-04-24T00:25:48.709Z,669.00
2024-04-24T00:26:02.782Z,669.00
2024-04-24T00:26:16.879Z,668.00
2024-04-24T00:26:30.959Z,669.00
2024-04-24T00:26:44.959Z,669.00
2024-04-24T00:26:58.955Z,669.00
2024-04-24T00:27:12.941Z,668.00
2024-04-24T00:27:26.951Z,667.00
2024-04-24T00:27:40.959Z,667.00
2024-04-24T00:27:54.961Z,666.00
2024-04-24T00:28:08.960Z,667.00
2024-04-24T00:28:22.961Z,667.00
2024-04-24T00:28:36.950Z,667.00
2024-04-24T00:28:50.980Z,667.00
2024-04-24T00:29:05.095Z,667.00
2024-04-24T00:29:19.189Z,667.00
2024-04-24T00:29:33.200Z,666.00
2024-04-24T00:29:47.187Z,667.00
2024-04-24T00:30:01.191Z,666.00
2024-04-24T00:30:15.211Z,666.00
2024-04-24T00:30:29.266Z,664.00
2024-04-24T00:30:43.259Z,664.00
2024-04-24T00:30:57.248Z,664.00
2024-04-24T00:31:11.282Z,663.00
2024-04-24T00:31:25.263Z,664.00
2024-04-24T00:31:39.260Z,664.00
2024-04-24T00:31:53.349Z,665.00
2024-04-24T00:32:07.544Z,664.00
2024-04-24T00:32:21.623Z,664.00
2024-04-24T00:32:35.723Z,664.00
2024-04-24T00:32:49.918Z,662.00
2024-04-24T00:33:04.056Z,663.00
2024-04-24T00:33:18.285Z,663.00
2024-04-24T00:33:32.401Z,663.00
2024-04-24T00:33:46.642Z,663.00
2024-04-24T00:34:00.808Z,664.00
2024-04-24T00:34:14.815Z,664.00
2024-04-24T00:34:28.810Z,665.00
2024-04-24T00:34:42.816Z,664.00
2024-04-24T00:34:56.841Z,663.00
2024-04-24T00:35:10.958Z,664.00
2024-04-24T00:35:25.059Z,664.00
2024-04-24T00:35:39.105Z,665.00
2024-04-24T00:35:53.112Z,665.00
2024-04-24T00:36:07.129Z,664.00
2024-04-24T00:36:21.158Z,664.00
2024-04-24T00:36:35.147Z,664.00
2024-04-24T00:36:49.143Z,664.00
2024-04-24T00:37:03.132Z,664.00
2024-04-24T00:37:17.219Z,663.00
2024-04-24T00:37:31.214Z,664.00
2024-04-24T00:37:45.240Z,664.00
2024-04-24T00:37:59.345Z,663.00
2024-04-24T00:38:13.374Z,663.00
2024-04-24T00:38:27.466Z,664.00
2024-04-24T00:38:41.489Z,664.00
2024-04-24T00:38:55.491Z,664.00
2024-04-24T00:39:09.498Z,664.00
2024-04-24T00:39:23.499Z,663.00
2024-04-24T00:39:37.524Z,663.00
2024-04-24T00:39:51.658Z,662.00
2024-04-24T00:40:05.715Z,663.00
2024-04-24T00:40:19.736Z,662.00
2024-04-24T00:40:33.742Z,661.00
2024-04-24T00:40:47.751Z,661.00
2024-04-24T00:41:01.789Z,661.00
2024-04-24T00:41:15.898Z,660.00
2024-04-24T00:41:29.982Z,661.00
2024-04-24T00:41:44.004Z,660.00
2024-04-24T00:41:58.013Z,660.00
2024-04-24T00:42:12.043Z,661.00
2024-04-24T00:42:26.078Z,661.00
2024-04-24T00:42:40.100Z,661.00
2024-04-24T00:42:54.103Z,662.00
2024-04-24T00:43:08.091Z,662.00
2024-04-24T00:43:22.083Z,661.00
2024-04-24T00:43:36.088Z,661.00
2024-04-24T00:43:50.170Z,661.00
2024-04-24T00:44:04.317Z,661.00
2024-04-24T00:44:18.484Z,660.00
2024-04-24T00:44:32.519Z,661.00
2024-04-24T00:44:46.518Z,660.00
2024-04-24T00:45:00.572Z,660.00
2024-04-24T00:45:14.567Z,660.00
2024-04-24T00:45:28.574Z,660.00
2024-04-24T00:45:45.306Z,659.00
2024-04-24T00:45:55.516Z,658.00
2024-04-24T00:46:09.523Z,658.00
2024-04-24T00:46:23.533Z,658.00
2024-04-24T00:46:37.556Z,657.00
2024-04-24T00:46:51.599Z,656.00
2024-04-24T00:47:05.756Z,657.00
2024-04-24T00:47:19.946Z,656.00
2024-04-24T00:47:34.117Z,656.00
2024-04-24T00:47:48.289Z,657.00
2024-04-24T00:48:02.438Z,657.00
2024-04-24T00:48:16.680Z,658.00
2024-04-24T00:48:30.832Z,658.00
2024-04-24T00:48:44.932Z,660.00
2024-04-24T00:48:58.977Z,659.00
2024-04-24T00:49:13.006Z,660.00
2024-04-24T00:49:27.008Z,660.00
2024-04-24T00:49:41.021Z,660.00
2024-04-24T00:49:55.057Z,660.00
2024-04-24T00:50:09.133Z,661.00
2024-04-24T00:50:23.244Z,661.00
2024-04-24T00:50:37.285Z,661.00
2024-04-24T00:50:51.281Z,661.00
2024-04-24T00:51:05.289Z,661.00
2024-04-24T00:51:19.304Z,659.00
2024-04-24T00:51:33.317Z,659.00
2024-04-24T00:51:47.324Z,659.00
2024-04-24T00:52:01.326Z,659.00
2024-04-24T00:52:15.333Z,658.00
2024-04-24T00:52:29.339Z,658.00
2024-04-24T00:52:43.392Z,657.00
2024-04-24T00:52:57.418Z,658.00
2024-04-24T00:53:11.450Z,657.00
2024-04-24T00:53:25.501Z,656.00
2024-04-24T00:53:39.538Z,655.00
2024-04-24T00:53:53.552Z,656.00
2024-04-24T00:54:07.569Z,656.00
2024-04-24T00:54:21.579Z,657.00
2024-04-24T00:54:35.605Z,656.00
2024-04-24T00:54:49.623Z,655.00
2024-04-24T00:55:03.651Z,656.00
2024-04-24T00:55:17.675Z,656.00
2024-04-24T00:55:31.689Z,655.00
2024-04-24T00:55:45.747Z,655.00
2024-04-24T00:55:59.774Z,655.00
2024-04-24T00:56:13.848Z,654.00
2024-04-24T00:56:27.934Z,653.00
2024-04-24T00:56:41.992Z,653.00
2024-04-24T00:56:56.028Z,653.00
2024-04-24T00:57:10.047Z,653.00
2024-04-24T00:57:24.054Z,653.00
2024-04-24T00:57:38.349Z,654.00
2024-04-24T00:57:52.367Z,654.00
2024-04-24T00:58:06.979Z,654.00
2024-04-24T00:58:20.987Z,654.00
2024-04-24T00:58:34.998Z,655.00
2024-04-24T00:58:49.028Z,655.00
2024-04-24T00:59:03.114Z,656.00
2024-04-24T00:59:17.365Z,655.00
2024-04-24T00:59:31.504Z,655.00
2024-04-24T00:59:45.497Z,655.00
2024-04-24T00:59:59.478Z,655.00
2024-04-24T01:00:13.447Z,655.00
2024-04-24T01:00:27.519Z,656.00
2024-04-24T01:00:43.482Z,655.00
2024-04-24T01:00:55.568Z,656.00
2024-04-24T01:01:09.685Z,656.00
2024-04-24T01:01:23.766Z,657.00
2024-04-24T01:01:37.778Z,657.00
2024-04-24T01:01:51.906Z,658.00
2024-04-24T01:02:05.980Z,658.00
2024-04-24T01:02:20.126Z,658.00
2024-04-24T01:02:34.256Z,658.00
2024-04-24T01:02:48.344Z,659.00
2024-04-24T01:03:02.475Z,658.00
2024-04-24T01:03:16.604Z,657.00
2024-04-24T01:03:30.762Z,658.00
2024-04-24T01:03:44.836Z,658.00
2024-04-24T01:03:58.874Z,658.00
2024-04-24T01:04:12.921Z,659.00
2024-04-24T01:04:27.039Z,659.00
2024-04-24T01:04:41.067Z,659.00
2024-04-24T01:04:55.105Z,658.00
2024-04-24T01:05:09.135Z,658.00
2024-04-24T01:05:23.216Z,658.00
2024-04-24T01:05:37.323Z,659.00
2024-04-24T01:05:51.328Z,657.00
2024-04-24T01:06:05.316Z,656.00
2024-04-24T01:06:19.332Z,655.00
2024-04-24T01:06:33.347Z,656.00
2024-04-24T01:06:51.016Z,656.00
2024-04-24T01:07:00.469Z,656.00
2024-04-24T01:07:14.494Z,656.00
2024-04-24T01:07:28.535Z,655.00
2024-04-24T01:07:42.537Z,655.00
2024-04-24T01:07:56.569Z,656.00
2024-04-24T01:08:10.629Z,657.00
2024-04-24T01:08:24.684Z,655.00
2024-04-24T01:08:38.717Z,654.00
2024-04-24T01:08:52.760Z,654.00
2024-04-24T01:09:06.782Z,654.00
2024-04-24T01:09:20.808Z,654.00
2024-04-24T01:09:34.816Z,653.00
2024-04-24T01:09:48.813Z,653.00
2024-04-24T01:10:02.815Z,651.00
2024-04-24T01:10:16.810Z,651.00
2024-04-24T01:10:30.828Z,652.00
2024-04-24T01:10:44.876Z,653.00
2024-04-24T01:10:58.985Z,653.00
2024-04-24T01:11:13.232Z,652.00
2024-04-24T01:11:27.464Z,652.00
2024-04-24T01:11:41.533Z,652.00
2024-04-24T01:11:55.644Z,651.00
2024-04-24T01:12:09.873Z,651.00
2024-04-24T01:12:23.977Z,651.00
2024-04-24T01:12:37.996Z,652.00
2024-04-24T01:12:52.012Z,652.00
2024-04-24T01:13:06.042Z,651.00
2024-04-24T01:13:20.038Z,652.00
2024-04-24T01:13:34.038Z,652.00
2024-04-24T01:13:48.105Z,653.00
2024-04-24T01:14:02.202Z,654.00
2024-04-24T01:14:16.404Z,657.00
2024-04-24T01:14:30.466Z,655.00
2024-04-24T01:14:44.481Z,654.00
2024-04-24T01:14:58.538Z,654.00
2024-04-24T01:15:12.535Z,653.00
2024-04-24T01:15:26.539Z,653.00
2024-04-24T01:15:40.550Z,653.00
2024-04-24T01:15:54.551Z,653.00
2024-04-24T01:16:08.555Z,653.00
2024-04-24T01:16:22.553Z,654.00
2024-04-24T01:16:36.540Z,653.00
2024-04-24T01:16:50.586Z,652.00
2024-04-24T01:17:04.715Z,651.00
2024-04-24T01:17:18.928Z,651.00
2024-04-24T01:17:33.111Z,651.00
2024-04-24T01:17:47.413Z,651.00
2024-04-24T01:18:01.782Z,651.00
2024-04-24T01:18:16.004Z,652.00
2024-04-24T01:18:30.178Z,651.00
2024-04-24T01:18:44.285Z,650.00
2024-04-24T01:18:58.322Z,650.00
2024-04-24T01:19:12.332Z,650.00
2024-04-24T01:19:26.328Z,649.00
2024-04-24T01:19:40.333Z,650.00
2024-04-24T01:19:54.373Z,650.00
2024-04-24T01:20:08.427Z,649.00
2024-04-24T01:20:22.554Z,647.00
2024-04-24T01:20:36.576Z,647.00
2024-04-24T01:20:50.595Z,648.00
2024-04-24T01:21:04.634Z,647.00
2024-04-24T01:21:18.674Z,646.00
2024-04-24T01:21:32.696Z,647.00
2024-04-24T01:21:50.095Z,647.00
2024-04-24T01:22:00.394Z,648.00
2024-04-24T01:22:14.380Z,648.00
2024-04-24T01:22:28.384Z,647.00
2024-04-24T01:22:42.376Z,647.00
2024-04-24T01:22:56.466Z,647.00
2024-04-24T01:23:10.518Z,647.00
2024-04-24T01:23:24.569Z,646.00
2024-04-24T01:23:38.567Z,646.00
2024-04-24T01:23:52.568Z,647.00
2024-04-24T01:24:06.562Z,647.00
2024-04-24T01:24:20.574Z,646.00
2024-04-24T01:24:34.586Z,647.00
2024-04-24T01:24:48.593Z,646.00
2024-04-24T01:25:02.603Z,645.00
2024-04-24T01:25:16.606Z,644.00
2024-04-24T01:25:30.599Z,645.00
2024-04-24T01:25:44.634Z,645.00
2024-04-24T01:25:58.711Z,644.00
2024-04-24T01:26:12.832Z,646.00
2024-04-24T01:26:26.883Z,645.00
2024-04-24T01:26:40.901Z,647.00
2024-04-24T01:26:54.905Z,646.00
2024-04-24T01:27:08.918Z,646.00
2024-04-24T01:27:22.929Z,646.00
2024-04-24T01:27:36.926Z,647.00
2024-04-24T01:27:50.921Z,647.00
2024-04-24T01:28:04.917Z,648.00
2024-04-24T01:28:18.929Z,648.00
2024-04-24T01:28:32.927Z,649.00
2024-04-24T01:28:46.957Z,649.00
2024-04-24T01:29:01.032Z,648.00
2024-04-24T01:29:15.116Z,649.00
2024-04-24T01:29:29.149Z,649.00
2024-04-24T01:29:43.128Z,649.00
2024-04-24T01:29:57.137Z,647.00
2024-04-24T01:30:23.933Z,647.00
2024-04-24T01:30:37.970Z,647.00
2024-04-24T01:30:51.959Z,647.00
2024-04-24T01:31:05.948Z,647.00
2024-04-24T01:31:20.005Z,648.00
2024-04-24T01:31:34.109Z,647.00
2024-04-24T01:31:48.261Z,648.00
2024-04-24T01:32:02.385Z,648.00
2024-04-24T01:32:16.462Z,647.00
2024-04-24T01:32:30.604Z,649.00
2024-04-24T01:32:44.774Z,649.00
2024-04-24T01:32:59.070Z,650.00
2024-04-24T01:33:13.437Z,652.00
2024-04-24T01:33:27.539Z,650.00
2024-04-24T01:33:41.620Z,650.00
2024-04-24T01:33:55.654Z,649.00
2024-04-24T01:34:09.645Z,649.00
2024-04-24T01:34:23.648Z,648.00
2024-04-24T01:34:37.667Z,649.00
2024-04-24T01:34:51.700Z,650.00
2024-04-24T01:35:05.752Z,651.00
2024-04-24T01:35:19.907Z,652.00
2024-04-24T01:35:33.994Z,652.00
2024-04-24T01:35:48.028Z,652.00
2024-04-24T01:36:02.030Z,652.00
2024-04-24T01:36:16.040Z,651.00
2024-04-24T01:36:30.047Z,651.00
2024-04-24T01:36:44.068Z,653.00
2024-04-24T01:36:58.062Z,653.00
2024-04-24T01:37:12.076Z,651.00
2024-04-24T01:37:26.087Z,651.00
2024-04-24T01:37:40.096Z,651.00
2024-04-24T01:37:54.105Z,651.00
2024-04-24T01:38:08.167Z,650.00
2024-04-24T01:38:22.314Z,649.00
2024-04-24T01:38:36.347Z,649.00
2024-04-24T01:38:50.345Z,647.00
2024-04-24T01:39:04.335Z,647.00
2024-04-24T01:39:18.329Z,647.00
2024-04-24T01:39:32.328Z,647.00
2024-04-24T01:39:46.330Z,648.00
2024-04-24T01:40:00.381Z,649.00
2024-04-24T01:40:14.397Z,648.00
2024-04-24T01:40:28.405Z,648.00
2024-04-24T01:40:42.425Z,647.00
2024-04-24T01:40:56.525Z,648.00
2024-04-24T01:41:10.612Z,648.00
2024-04-24T01:41:24.700Z,647.00
2024-04-24T01:41:38.747Z,648.00
2024-04-24T01:41:52.746Z,648.00
2024-04-24T01:42:06.756Z,649.00
2024-04-24T01:42:20.773Z,649.00
2024-04-24T01:42:34.767Z,649.00
2024-04-24T01:42:48.788Z,649.00
2024-04-24T01:43:02.797Z,648.00
2024-04-24T01:43:16.803Z,647.00
2024-04-24T01:43:30.822Z,647.00
2024-04-24T01:43:44.833Z,645.00
2024-04-24T01:43:58.837Z,647.00
2024-04-24T01:44:12.883Z,645.00
2024-04-24T01:44:26.941Z,646.00
2024-04-24T01:44:40.971Z,647.00
2024-04-24T01:44:54.976Z,647.00
2024-04-24T01:45:08.983Z,646.00
2024-04-24T01:45:22.976Z,647.00
2024-04-24T01:45:36.964Z,648.00
2024-04-24T01:45:50.957Z,648.00
2024-04-24T01:46:05.003Z,647.00
2024-04-24T01:46:19.018Z,646.00
2024-04-24T01:46:33.041Z,647.00
2024-04-24T01:46:47.093Z,646.00
2024-04-24T01:47:01.173Z,645.00
2024-04-24T01:47:15.271Z,644.00
2024-04-24T01:47:29.444Z,645.00
2024-04-24T01:47:43.656Z,645.00
2024-04-24T01:47:57.815Z,644.00
2024-04-24T01:48:11.896Z,643.00
2024-04-24T01:48:26.141Z,642.00
2024-04-24T01:48:40.248Z,643.00
2024-04-24T01:48:54.423Z,644.00
2024-04-24T01:49:08.459Z,643.00
2024-04-24T01:49:22.467Z,643.00
2024-04-24T01:49:36.480Z,644.00
2024-04-24T01:49:50.520Z,643.00
2024-04-24T01:50:04.617Z,643.00
2024-04-24T01:50:18.764Z,643.00
2024-04-24T01:50:32.870Z,643.00
2024-04-24T01:50:46.872Z,644.00
2024-04-24T01:51:00.877Z,642.00
2024-04-24T01:51:14.899Z,642.00
2024-04-24T01:51:28.896Z,641.00
2024-04-24T01:51:42.908Z,641.00
2024-04-24T01:51:56.907Z,640.00
2024-04-24T01:52:10.936Z,641.00
2024-04-24T01:52:24.939Z,640.00
2024-04-24T01:52:38.960Z,641.00
2024-04-24T01:52:52.980Z,641.00
2024-04-24T01:53:07.041Z,641.00
2024-04-24T01:53:21.115Z,642.00
2024-04-24T01:53:35.154Z,642.00
2024-04-24T01:53:49.211Z,641.00
2024-04-24T01:54:03.260Z,642.00
2024-04-24T01:54:17.255Z,642.00
2024-04-24T01:54:31.257Z,643.00
2024-04-24T01:54:45.274Z,643.00
2024-04-24T01:54:59.263Z,643.00
2024-04-24T01:55:13.278Z,642.00
2024-04-24T01:55:27.323Z,642.00
2024-04-24T01:55:41.327Z,642.00
2024-04-24T01:55:55.375Z,643.00
2024-04-24T01:56:09.497Z,643.00
2024-04-24T01:56:23.643Z,643.00
2024-04-24T01:56:37.666Z,643.00
2024-04-24T01:56:51.667Z,644.00
2024-04-24T01:57:05.672Z,645.00
2024-04-24T01:57:19.695Z,644.00
2024-04-24T01:57:33.707Z,643.00
2024-04-24T01:57:47.712Z,643.00
2024-04-24T01:58:01.727Z,642.00
2024-04-24T01:58:15.738Z,641.00
2024-04-24T01:58:29.752Z,641.00
2024-04-24T01:58:43.762Z,642.00
2024-04-24T01:58:57.796Z,642.00
2024-04-24T01:59:11.842Z,641.00
2024-04-24T01:59:25.919Z,641.00
2024-04-24T01:59:39.984Z,642.00
2024-04-24T01:59:53.975Z,642.00
2024-04-24T02:00:07.990Z,642.00
2024-04-24T02:00:22.082Z,642.00
2024-04-24T02:00:36.166Z,643.00
2024-04-24T02:00:50.246Z,642.00
2024-04-24T02:01:04.365Z,643.00
2024-04-24T02:01:18.411Z,642.00
2024-04-24T02:01:32.411Z,642.00
2024-04-24T02:01:46.511Z,642.00
2024-04-24T02:02:00.607Z,642.00
2024-04-24T02:02:14.653Z,643.00
2024-04-24T02:02:28.807Z,643.00
2024-04-24T02:02:42.920Z,644.00
2024-04-24T02:02:56.977Z,644.00
2024-04-24T02:03:11.087Z,644.00
2024-04-24T02:03:25.121Z,644.00
2024-04-24T02:03:39.132Z,643.00
2024-04-24T02:03:53.160Z,642.00
2024-04-24T02:04:07.271Z,643.00
2024-04-24T02:04:21.321Z,643.00
2024-04-24T02:04:35.355Z,643.00
2024-04-24T02:04:49.387Z,642.00
2024-04-24T02:05:03.478Z,641.00
2024-04-24T02:05:17.593Z,641.00
2024-04-24T02:05:31.683Z,642.00
2024-04-24T02:05:45.706Z,641.00
2024-04-24T02:05:59.705Z,640.00
2024-04-24T02:06:13.718Z,641.00
2024-04-24T02:06:27.756Z,641.00
2024-04-24T02:06:41.789Z,641.00
2024-04-24T02:06:55.782Z,641.00
2024-04-24T02:07:09.809Z,639.00
2024-04-24T02:07:23.818Z,638.00
2024-04-24T02:07:37.855Z,637.00
2024-04-24T02:07:51.884Z,637.00
2024-04-24T02:08:05.959Z,637.00
2024-04-24T02:08:20.008Z,637.00
2024-04-24T02:08:34.038Z,640.00
2024-04-24T02:08:48.047Z,639.00
2024-04-24T02:09:02.071Z,639.00
2024-04-24T02:09:16.114Z,641.00
2024-04-24T02:09:30.119Z,640.00
2024-04-24T02:09:44.135Z,639.00
2024-04-24T02:09:58.141Z,639.00
2024-04-24T02:10:12.165Z,639.00
2024-04-24T02:10:26.200Z,637.00
2024-04-24T02:10:40.213Z,640.00
2024-04-24T02:10:54.228Z,638.00
2024-04-24T02:11:08.297Z,637.00
2024-04-24T02:11:22.513Z,637.00
2024-04-24T02:11:36.816Z,638.00
2024-04-24T02:11:59.428Z,637.00
2024-04-24T02:12:10.641Z,639.00
2024-04-24T02:12:18.558Z,638.00
2024-04-24T02:12:32.705Z,636.00
2024-04-24T02:12:46.731Z,636.00
2024-04-24T02:13:00.912Z,637.00
2024-04-24T02:13:14.955Z,638.00
2024-04-24T02:13:28.962Z,636.00
2024-04-24T02:13:42.961Z,636.00
2024-04-24T02:13:57.050Z,636.00
2024-04-24T02:14:11.115Z,634.00
2024-04-24T02:14:25.168Z,634.00
2024-04-24T02:14:39.196Z,634.00
2024-04-24T02:14:53.237Z,635.00
2024-04-24T02:15:07.233Z,636.00
2024-04-24T02:15:21.237Z,636.00
2024-04-24T02:15:35.242Z,635.00
2024-04-24T02:15:49.246Z,634.00
2024-04-24T02:16:03.222Z,634.00
2024-04-24T02:16:17.222Z,634.00
2024-04-24T02:16:31.246Z,634.00
2024-04-24T02:16:45.379Z,634.00
2024-04-24T02:16:59.414Z,635.00
2024-04-24T02:17:13.479Z,636.00
2024-04-24T02:17:27.566Z,636.00
2024-04-24T02:17:41.740Z,637.00
2024-04-24T02:17:55.847Z,637.00
2024-04-24T02:18:09.997Z,639.00
2024-04-24T02:18:24.123Z,639.00
2024-04-24T02:18:38.389Z,638.00
2024-04-24T02:18:52.648Z,639.00
2024-04-24T02:19:06.718Z,638.00
2024-04-24T02:19:20.731Z,638.00
2024-04-24T02:19:34.728Z,637.00
2024-04-24T02:19:48.794Z,637.00
2024-04-24T02:20:02.854Z,638.00
2024-04-24T02:20:16.988Z,637.00
2024-04-24T02:20:31.120Z,638.00
2024-04-24T02:20:45.155Z,638.00
2024-04-24T02:20:59.151Z,639.00
2024-04-24T02:21:13.178Z,638.00
2024-04-24T02:21:27.198Z,639.00
2024-04-24T02:21:41.210Z,639.00
2024-04-24T02:21:55.207Z,638.00
2024-04-24T02:22:09.212Z,638.00
2024-04-24T02:22:23.227Z,639.00
2024-04-24T02:22:38.055Z,639.00
2024-04-24T02:22:52.204Z,638.00
2024-04-24T02:23:06.233Z,638.00
2024-04-24T02:23:20.459Z,638.00
2024-04-24T02:23:34.595Z,637.00
2024-04-24T02:23:48.643Z,638.00
2024-04-24T02:24:02.658Z,637.00
2024-04-24T02:24:16.670Z,638.00
2024-04-24T02:24:30.665Z,638.00
2024-04-24T02:24:44.668Z,637.00
2024-04-24T02:24:58.666Z,637.00
2024-04-24T02:25:12.684Z,637.00
2024-04-24T02:25:26.692Z,636.00
2024-04-24T02:25:40.733Z,636.00
2024-04-24T02:25:54.749Z,636.00
2024-04-24T02:26:08.840Z,636.00
2024-04-24T02:26:22.900Z,636.00
2024-04-24T02:26:36.925Z,635.00
2024-04-24T02:26:50.917Z,635.00
2024-04-24T02:27:04.905Z,635.00
2024-04-24T02:27:18.977Z,636.00
2024-04-24T02:27:33.028Z,636.00
2024-04-24T02:27:47.032Z,638.00
2024-04-24T02:28:01.034Z,637.00
2024-04-24T02:28:15.053Z,637.00
2024-04-24T02:28:29.085Z,639.00
2024-04-24T02:28:43.090Z,638.00
2024-04-24T02:28:57.171Z,637.00
2024-04-24T02:29:11.222Z,638.00
2024-04-24T02:29:25.285Z,637.00
2024-04-24T02:29:48.221Z,637.00
2024-04-24T02:29:56.438Z,637.00
2024-04-24T02:30:06.022Z,635.00
2024-04-24T02:30:20.028Z,635.00
2024-04-24T02:30:34.038Z,635.00
2024-04-24T02:30:48.052Z,635.00
2024-04-24T02:31:02.059Z,635.00
2024-04-24T02:31:16.062Z,634.00
2024-04-24T02:31:30.059Z,634.00
2024-04-24T02:31:44.069Z,633.00
2024-04-24T02:31:58.167Z,634.00
2024-04-24T02:32:12.262Z,635.00
2024-04-24T02:32:26.432Z,635.00
2024-04-24T02:32:40.638Z,635.00
2024-04-24T02:32:54.909Z,634.00
2024-04-24T02:33:09.139Z,635.00
2024-04-24T02:33:23.464Z,634.00
2024-04-24T02:33:37.618Z,634.00
2024-04-24T02:33:51.755Z,636.00
2024-04-24T02:34:05.772Z,636.00
2024-04-24T02:34:19.787Z,635.00
2024-04-24T02:34:33.788Z,636.00
2024-04-24T02:34:47.830Z,636.00
2024-04-24T02:35:01.886Z,636.00
2024-04-24T02:35:15.987Z,636.00
2024-04-24T02:35:30.138Z,635.00
2024-04-24T02:35:44.203Z,636.00
2024-04-24T02:35:58.250Z,636.00
2024-04-24T02:36:12.280Z,637.00
2024-04-24T02:36:26.296Z,637.00
2024-04-24T02:36:40.312Z,636.00
2024-04-24T02:36:54.326Z,634.00
2024-04-24T02:37:08.314Z,634.00
2024-04-24T02:37:22.319Z,635.00
2024-04-24T02:37:38.971Z,634.00
2024-04-24T02:37:50.804Z,634.00
2024-04-24T02:38:04.857Z,634.00
2024-04-24T02:38:18.955Z,635.00
2024-04-24T02:38:33.015Z,636.00
2024-04-24T02:38:47.076Z,635.00
2024-04-24T02:39:01.126Z,635.00
2024-04-24T02:39:15.154Z,635.00
2024-04-24T02:39:29.140Z,636.00
2024-04-24T02:39:43.162Z,635.00
2024-04-24T02:39:57.168Z,636.00
2024-04-24T02:40:11.184Z,636.00
2024-04-24T02:40:25.200Z,637.00
2024-04-24T02:40:39.253Z,636.00
2024-04-24T02:40:53.265Z,635.00
2024-04-24T02:41:07.320Z,634.00
2024-04-24T02:41:21.388Z,635.00
2024-04-24T02:41:35.458Z,634.00
2024-04-24T02:41:49.455Z,635.00
2024-04-24T02:42:03.441Z,634.00
2024-04-24T02:42:17.433Z,633.00
2024-04-24T02:42:31.436Z,632.00
2024-04-24T02:42:45.435Z,632.00
2024-04-24T02:42:59.466Z,632.00
2024-04-24T02:43:13.501Z,632.00
2024-04-24T02:43:27.521Z,632.00
2024-04-24T02:43:41.511Z,632.00
2024-04-24T02:43:55.544Z,630.00
2024-04-24T02:44:09.581Z,630.00
2024-04-24T02:44:23.653Z,630.00
2024-04-24T02:44:37.680Z,630.00
2024-04-24T02:44:51.678Z,630.00
2024-04-24T02:45:05.688Z,629.00
2024-04-24T02:45:19.706Z,628.00
2024-04-24T02:45:33.708Z,630.00
2024-04-24T02:45:47.720Z,629.00
2024-04-24T02:46:01.712Z,629.00
2024-04-24T02:46:15.740Z,629.00
2024-04-24T02:46:29.741Z,630.00
2024-04-24T02:46:43.735Z,628.00
2024-04-24T02:46:57.739Z,630.00
2024-04-24T02:47:11.862Z,630.00
2024-04-24T02:47:26.059Z,629.00
2024-04-24T02:47:40.225Z,629.00
2024-04-24T02:47:54.460Z,630.00
2024-04-24T02:48:08.587Z,630.00
2024-04-24T02:48:22.756Z,629.00
2024-04-24T02:48:37.033Z,629.00
2024-04-24T02:48:51.232Z,628.00
2024-04-24T02:49:05.282Z,628.00
2024-04-24T02:49:19.438Z,628.00
2024-04-24T02:49:33.523Z,629.00
2024-04-24T02:49:47.554Z,629.00
2024-04-24T02:50:01.694Z,630.00
2024-04-24T02:50:16.010Z,631.00
2024-04-24T02:50:30.326Z,630.00
2024-04-24T02:50:44.330Z,630.00
2024-04-24T02:50:58.349Z,631.00
2024-04-24T02:51:12.358Z,632.00
2024-04-24T02:51:26.531Z,632.00
2024-04-24T02:51:40.544Z,632.00
2024-04-24T02:51:54.553Z,632.00
2024-04-24T02:52:08.547Z,632.00
2024-04-24T02:52:22.726Z,632.00
2024-04-24T02:52:36.783Z,633.00
2024-04-24T02:52:50.807Z,633.00
2024-04-24T02:53:04.935Z,633.00
2024-04-24T02:53:19.228Z,631.00
2024-04-24T02:53:33.338Z,631.00
2024-04-24T02:53:47.348Z,631.00
2024-04-24T02:54:01.376Z,629.00
2024-04-24T02:54:15.460Z,629.00
2024-04-24T02:54:29.542Z,629.00
2024-04-24T02:54:43.529Z,629.00
2024-04-24T02:54:57.552Z,630.00
2024-04-24T02:55:11.576Z,629.00
2024-04-24T02:55:25.606Z,629.00